sensor_id;sensor_type;location;lat;lon;timestamp;temperature;humidity
678;DHT22;321;48.814;9.132;2023-06-26T00:00:24;21.90;77.50
678;DHT22;321;48.814;9.132;2023-06-26T00:02:49;21.80;77.40
678;DHT22;321;48.814;9.132;2023-06-26T00:05:15;21.70;79.10
678;DHT22;321;48.814;9.132;2023-06-26T00:07:41;21.70;78.00
678;DHT22;321;48.814;9.132;2023-06-26T00:10:07;21.70;78.70
678;DHT22;321;48.814;9.132;2023-06-26T00:12:32;21.70;77.60
678;DHT22;321;48.814;9.132;2023-06-26T00:14:58;21.70;77.20
678;DHT22;321;48.814;9.132;2023-06-26T00:17:24;21.60;79.20
678;DHT22;321;48.814;9.132;2023-06-26T00:19:50;21.60;79.80
678;DHT22;321;48.814;9.132;2023-06-26T00:22:16;21.60;80.60
678;DHT22;321;48.814;9.132;2023-06-26T00:24:41;21.60;79.60
678;DHT22;321;48.814;9.132;2023-06-26T00:27:07;21.60;80.00
678;DHT22;321;48.814;9.132;2023-06-26T00:29:33;21.60;79.90
678;DHT22;321;48.814;9.132;2023-06-26T00:31:58;21.50;80.00
678;DHT22;321;48.814;9.132;2023-06-26T00:34:26;21.60;80.10
678;DHT22;321;48.814;9.132;2023-06-26T00:36:52;21.40;81.60
678;DHT22;321;48.814;9.132;2023-06-26T00:39:17;21.50;80.30
678;DHT22;321;48.814;9.132;2023-06-26T00:41:43;21.40;81.40
678;DHT22;321;48.814;9.132;2023-06-26T00:44:08;21.40;81.80
678;DHT22;321;48.814;9.132;2023-06-26T00:46:34;21.30;82.60
678;DHT22;321;48.814;9.132;2023-06-26T00:49:02;21.30;82.60
678;DHT22;321;48.814;9.132;2023-06-26T00:51:29;21.20;82.10
678;DHT22;321;48.814;9.132;2023-06-26T00:53:56;21.20;83.40
678;DHT22;321;48.814;9.132;2023-06-26T00:56:22;21.20;84.50
678;DHT22;321;48.814;9.132;2023-06-26T00:58:48;21.10;84.30
678;DHT22;321;48.814;9.132;2023-06-26T01:01:14;21.00;85.20
678;DHT22;321;48.814;9.132;2023-06-26T01:03:43;21.00;85.70
678;DHT22;321;48.814;9.132;2023-06-26T01:06:11;20.90;86.20
678;DHT22;321;48.814;9.132;2023-06-26T01:08:39;20.90;83.90
678;DHT22;321;48.814;9.132;2023-06-26T01:11:05;20.90;86.70
678;DHT22;321;48.814;9.132;2023-06-26T01:13:31;20.80;85.10
678;DHT22;321;48.814;9.132;2023-06-26T01:16:00;20.80;85.50
678;DHT22;321;48.814;9.132;2023-06-26T01:18:26;20.80;84.00
678;DHT22;321;48.814;9.132;2023-06-26T01:20:53;20.80;86.40
678;DHT22;321;48.814;9.132;2023-06-26T01:23:22;20.90;87.00
678;DHT22;321;48.814;9.132;2023-06-26T01:28:34;20.90;90.10
678;DHT22;321;48.814;9.132;2023-06-26T01:31:01;20.80;90.60
678;DHT22;321;48.814;9.132;2023-06-26T01:33:28;20.80;91.30
678;DHT22;321;48.814;9.132;2023-06-26T01:35:53;20.80;90.90
678;DHT22;321;48.814;9.132;2023-06-26T01:38:20;20.70;90.90
678;DHT22;321;48.814;9.132;2023-06-26T01:40:48;20.70;90.50
678;DHT22;321;48.814;9.132;2023-06-26T01:45:48;20.60;90.10
678;DHT22;321;48.814;9.132;2023-06-26T01:48:17;20.60;90.70
678;DHT22;321;48.814;9.132;2023-06-26T01:50:46;20.50;90.50
678;DHT22;321;48.814;9.132;2023-06-26T01:53:16;20.50;91.20
678;DHT22;321;48.814;9.132;2023-06-26T01:56:07;20.30;91.40
678;DHT22;321;48.814;9.132;2023-06-26T01:58:34;20.30;92.00
678;DHT22;321;48.814;9.132;2023-06-26T02:01:00;20.40;91.70
678;DHT22;321;48.814;9.132;2023-06-26T02:03:26;20.30;92.10
678;DHT22;321;48.814;9.132;2023-06-26T02:05:51;20.20;93.00
678;DHT22;321;48.814;9.132;2023-06-26T02:08:17;20.20;93.50
678;DHT22;321;48.814;9.132;2023-06-26T02:10:43;20.00;93.60
678;DHT22;321;48.814;9.132;2023-06-26T02:13:08;20.00;94.00
678;DHT22;321;48.814;9.132;2023-06-26T02:15:34;20.00;94.40
678;DHT22;321;48.814;9.132;2023-06-26T02:17:59;20.00;94.40
678;DHT22;321;48.814;9.132;2023-06-26T02:20:25;20.00;94.60
678;DHT22;321;48.814;9.132;2023-06-26T02:22:50;20.00;94.60
678;DHT22;321;48.814;9.132;2023-06-26T02:25:17;20.00;94.80
678;DHT22;321;48.814;9.132;2023-06-26T02:27:43;20.00;95.00
678;DHT22;321;48.814;9.132;2023-06-26T02:30:09;20.10;94.80
678;DHT22;321;48.814;9.132;2023-06-26T02:32:34;20.00;94.50
678;DHT22;321;48.814;9.132;2023-06-26T02:35:00;19.90;95.00
678;DHT22;321;48.814;9.132;2023-06-26T02:37:26;19.90;95.60
678;DHT22;321;48.814;9.132;2023-06-26T02:39:52;19.90;95.40
678;DHT22;321;48.814;9.132;2023-06-26T02:42:17;19.90;95.60
678;DHT22;321;48.814;9.132;2023-06-26T02:44:43;19.80;95.80
678;DHT22;321;48.814;9.132;2023-06-26T02:47:08;19.80;96.00
678;DHT22;321;48.814;9.132;2023-06-26T02:49:34;19.70;96.40
678;DHT22;321;48.814;9.132;2023-06-26T02:51:59;19.70;96.70
678;DHT22;321;48.814;9.132;2023-06-26T02:54:25;19.70;97.10
678;DHT22;321;48.814;9.132;2023-06-26T02:56:50;19.70;97.10
678;DHT22;321;48.814;9.132;2023-06-26T02:59:16;19.70;96.60
678;DHT22;321;48.814;9.132;2023-06-26T03:01:42;19.70;96.80
678;DHT22;321;48.814;9.132;2023-06-26T03:04:07;19.60;97.00
678;DHT22;321;48.814;9.132;2023-06-26T03:06:33;19.60;97.20
678;DHT22;321;48.814;9.132;2023-06-26T03:08:59;19.50;97.20
678;DHT22;321;48.814;9.132;2023-06-26T03:11:24;19.50;97.60
678;DHT22;321;48.814;9.132;2023-06-26T03:13:50;19.40;97.70
678;DHT22;321;48.814;9.132;2023-06-26T03:16:15;19.40;98.10
678;DHT22;321;48.814;9.132;2023-06-26T03:18:41;19.50;98.30
678;DHT22;321;48.814;9.132;2023-06-26T03:21:06;19.40;98.30
678;DHT22;321;48.814;9.132;2023-06-26T03:23:32;19.60;98.50
678;DHT22;321;48.814;9.132;2023-06-26T03:25:57;19.50;98.60
678;DHT22;321;48.814;9.132;2023-06-26T03:28:23;19.50;98.50
678;DHT22;321;48.814;9.132;2023-06-26T03:30:48;19.50;98.20
678;DHT22;321;48.814;9.132;2023-06-26T03:33:14;19.50;98.60
678;DHT22;321;48.814;9.132;2023-06-26T03:35:39;19.50;98.70
678;DHT22;321;48.814;9.132;2023-06-26T03:38:05;19.40;98.60
678;DHT22;321;48.814;9.132;2023-06-26T03:40:31;19.50;98.70
678;DHT22;321;48.814;9.132;2023-06-26T03:42:56;19.50;98.40
678;DHT22;321;48.814;9.132;2023-06-26T03:45:22;19.50;98.30
678;DHT22;321;48.814;9.132;2023-06-26T03:47:47;19.60;98.10
678;DHT22;321;48.814;9.132;2023-06-26T03:50:18;19.60;98.40
678;DHT22;321;48.814;9.132;2023-06-26T03:52:44;19.60;98.20
678;DHT22;321;48.814;9.132;2023-06-26T03:55:09;19.70;98.20
678;DHT22;321;48.814;9.132;2023-06-26T03:57:35;19.70;98.20
678;DHT22;321;48.814;9.132;2023-06-26T04:00:00;19.70;98.90
678;DHT22;321;48.814;9.132;2023-06-26T04:02:26;19.70;98.20
678;DHT22;321;48.814;9.132;2023-06-26T04:04:52;19.80;98.00
678;DHT22;321;48.814;9.132;2023-06-26T04:07:18;19.80;97.90
678;DHT22;321;48.814;9.132;2023-06-26T04:09:44;19.80;98.30
678;DHT22;321;48.814;9.132;2023-06-26T04:12:10;19.80;98.80
678;DHT22;321;48.814;9.132;2023-06-26T04:14:35;19.80;99.10
678;DHT22;321;48.814;9.132;2023-06-26T04:17:01;19.80;98.70
678;DHT22;321;48.814;9.132;2023-06-26T04:19:29;19.90;98.40
678;DHT22;321;48.814;9.132;2023-06-26T04:21:56;20.00;98.70
678;DHT22;321;48.814;9.132;2023-06-26T04:24:21;20.00;98.80
678;DHT22;321;48.814;9.132;2023-06-26T04:26:47;20.00;99.00
678;DHT22;321;48.814;9.132;2023-06-26T04:29:13;20.10;99.00
678;DHT22;321;48.814;9.132;2023-06-26T04:31:39;20.10;98.80
678;DHT22;321;48.814;9.132;2023-06-26T04:34:04;20.20;99.00
678;DHT22;321;48.814;9.132;2023-06-26T04:36:30;20.20;98.70
678;DHT22;321;48.814;9.132;2023-06-26T04:38:57;20.30;99.20
678;DHT22;321;48.814;9.132;2023-06-26T04:41:22;20.50;99.20
678;DHT22;321;48.814;9.132;2023-06-26T04:43:48;20.50;99.20
678;DHT22;321;48.814;9.132;2023-06-26T04:46:13;20.60;99.30
678;DHT22;321;48.814;9.132;2023-06-26T04:48:39;20.70;98.90
678;DHT22;321;48.814;9.132;2023-06-26T04:51:04;20.90;98.40
678;DHT22;321;48.814;9.132;2023-06-26T04:53:30;21.00;98.60
678;DHT22;321;48.814;9.132;2023-06-26T04:55:56;21.20;98.60
678;DHT22;321;48.814;9.132;2023-06-26T04:58:21;21.40;98.50
678;DHT22;321;48.814;9.132;2023-06-26T05:00:47;21.60;98.60
678;DHT22;321;48.814;9.132;2023-06-26T05:03:13;21.80;98.00
678;DHT22;321;48.814;9.132;2023-06-26T05:05:39;22.20;97.50
678;DHT22;321;48.814;9.132;2023-06-26T05:08:24;22.50;97.00
678;DHT22;321;48.814;9.132;2023-06-26T05:10:51;23.00;96.60
678;DHT22;321;48.814;9.132;2023-06-26T05:13:18;23.50;96.00
678;DHT22;321;48.814;9.132;2023-06-26T05:15:45;24.60;95.00
678;DHT22;321;48.814;9.132;2023-06-26T05:18:12;25.70;92.60
678;DHT22;321;48.814;9.132;2023-06-26T05:20:38;26.30;90.80
678;DHT22;321;48.814;9.132;2023-06-26T05:23:04;27.40;87.10
678;DHT22;321;48.814;9.132;2023-06-26T05:25:31;28.50;81.90
678;DHT22;321;48.814;9.132;2023-06-26T05:27:57;30.00;77.70
678;DHT22;321;48.814;9.132;2023-06-26T05:30:27;31.30;72.70
678;DHT22;321;48.814;9.132;2023-06-26T05:32:54;32.30;66.80
678;DHT22;321;48.814;9.132;2023-06-26T05:35:20;33.20;62.00
678;DHT22;321;48.814;9.132;2023-06-26T05:37:50;33.80;60.80
678;DHT22;321;48.814;9.132;2023-06-26T05:40:17;33.70;57.50
678;DHT22;321;48.814;9.132;2023-06-26T05:42:43;34.20;57.60
678;DHT22;321;48.814;9.132;2023-06-26T05:45:10;34.60;56.70
678;DHT22;321;48.814;9.132;2023-06-26T05:47:36;35.00;54.70
678;DHT22;321;48.814;9.132;2023-06-26T05:50:02;35.40;54.20
678;DHT22;321;48.814;9.132;2023-06-26T05:52:28;35.80;51.90
678;DHT22;321;48.814;9.132;2023-06-26T05:54:54;36.30;51.40
678;DHT22;321;48.814;9.132;2023-06-26T05:57:20;36.70;46.90
678;DHT22;321;48.814;9.132;2023-06-26T05:59:46;37.30;48.00
678;DHT22;321;48.814;9.132;2023-06-26T06:02:12;36.90;45.30
678;DHT22;321;48.814;9.132;2023-06-26T06:04:38;37.60;48.60
678;DHT22;321;48.814;9.132;2023-06-26T06:07:04;37.60;44.20
678;DHT22;321;48.814;9.132;2023-06-26T06:09:29;37.50;45.40
678;DHT22;321;48.814;9.132;2023-06-26T06:11:55;36.20;45.00
678;DHT22;321;48.814;9.132;2023-06-26T06:14:20;35.00;46.80
678;DHT22;321;48.814;9.132;2023-06-26T06:16:46;34.10;48.60
678;DHT22;321;48.814;9.132;2023-06-26T06:19:11;33.70;49.10
678;DHT22;321;48.814;9.132;2023-06-26T06:21:39;33.70;52.30
678;DHT22;321;48.814;9.132;2023-06-26T06:24:04;33.40;50.80
678;DHT22;321;48.814;9.132;2023-06-26T06:26:32;32.90;52.00
678;DHT22;321;48.814;9.132;2023-06-26T06:28:57;33.70;51.00
678;DHT22;321;48.814;9.132;2023-06-26T06:31:23;34.50;49.00
678;DHT22;321;48.814;9.132;2023-06-26T06:33:48;35.90;47.40
678;DHT22;321;48.814;9.132;2023-06-26T06:36:14;36.60;46.40
678;DHT22;321;48.814;9.132;2023-06-26T06:38:43;37.50;44.90
678;DHT22;321;48.814;9.132;2023-06-26T06:41:09;38.80;44.40
678;DHT22;321;48.814;9.132;2023-06-26T06:43:34;40.00;42.90
678;DHT22;321;48.814;9.132;2023-06-26T06:46:01;41.10;39.90
678;DHT22;321;48.814;9.132;2023-06-26T06:48:27;42.00;39.80
678;DHT22;321;48.814;9.132;2023-06-26T06:50:52;43.40;36.90
678;DHT22;321;48.814;9.132;2023-06-26T06:53:18;44.50;36.30
678;DHT22;321;48.814;9.132;2023-06-26T06:55:46;44.60;35.30
678;DHT22;321;48.814;9.132;2023-06-26T06:58:11;44.80;39.30
678;DHT22;321;48.814;9.132;2023-06-26T07:00:37;44.80;39.10
678;DHT22;321;48.814;9.132;2023-06-26T07:03:03;45.10;35.20
678;DHT22;321;48.814;9.132;2023-06-26T07:05:29;45.30;39.40
678;DHT22;321;48.814;9.132;2023-06-26T07:07:55;45.70;36.70
678;DHT22;321;48.814;9.132;2023-06-26T07:10:21;46.00;36.40
678;DHT22;321;48.814;9.132;2023-06-26T07:12:46;45.70;37.50
678;DHT22;321;48.814;9.132;2023-06-26T07:15:12;46.40;35.50
678;DHT22;321;48.814;9.132;2023-06-26T07:17:38;46.70;35.00
678;DHT22;321;48.814;9.132;2023-06-26T07:20:05;47.20;34.70
678;DHT22;321;48.814;9.132;2023-06-26T07:22:38;46.50;30.10
678;DHT22;321;48.814;9.132;2023-06-26T07:25:04;45.20;35.90
678;DHT22;321;48.814;9.132;2023-06-26T07:27:34;44.90;34.80
678;DHT22;321;48.814;9.132;2023-06-26T07:30:00;45.30;36.00
678;DHT22;321;48.814;9.132;2023-06-26T07:32:25;45.70;36.60
678;DHT22;321;48.814;9.132;2023-06-26T07:34:51;46.40;33.60
678;DHT22;321;48.814;9.132;2023-06-26T07:37:16;47.00;33.90
678;DHT22;321;48.814;9.132;2023-06-26T07:39:42;47.70;33.10
678;DHT22;321;48.814;9.132;2023-06-26T07:42:08;47.90;29.90
678;DHT22;321;48.814;9.132;2023-06-26T07:44:33;48.90;31.00
678;DHT22;321;48.814;9.132;2023-06-26T07:46:59;49.30;29.50
678;DHT22;321;48.814;9.132;2023-06-26T07:49:24;50.10;29.20
678;DHT22;321;48.814;9.132;2023-06-26T07:51:50;51.10;26.80
678;DHT22;321;48.814;9.132;2023-06-26T07:54:15;52.00;27.70
678;DHT22;321;48.814;9.132;2023-06-26T07:56:58;52.60;26.20
678;DHT22;321;48.814;9.132;2023-06-26T07:59:25;53.10;25.20
678;DHT22;321;48.814;9.132;2023-06-26T08:01:51;53.20;25.00
678;DHT22;321;48.814;9.132;2023-06-26T08:04:18;53.50;25.60
678;DHT22;321;48.814;9.132;2023-06-26T08:06:45;53.50;24.20
678;DHT22;321;48.814;9.132;2023-06-26T08:09:11;53.90;24.10
678;DHT22;321;48.814;9.132;2023-06-26T08:11:38;54.30;23.80
678;DHT22;321;48.814;9.132;2023-06-26T08:14:03;54.20;24.10
678;DHT22;321;48.814;9.132;2023-06-26T08:16:29;53.60;23.80
678;DHT22;321;48.814;9.132;2023-06-26T08:18:55;53.40;23.80
678;DHT22;321;48.814;9.132;2023-06-26T08:21:20;53.30;23.90
678;DHT22;321;48.814;9.132;2023-06-26T08:23:46;52.70;23.80
678;DHT22;321;48.814;9.132;2023-06-26T08:26:11;52.40;24.80
678;DHT22;321;48.814;9.132;2023-06-26T08:28:37;51.90;24.70
678;DHT22;321;48.814;9.132;2023-06-26T08:31:05;51.80;24.40
678;DHT22;321;48.814;9.132;2023-06-26T08:33:31;51.50;24.90
678;DHT22;321;48.814;9.132;2023-06-26T08:35:56;50.90;25.20
678;DHT22;321;48.814;9.132;2023-06-26T08:38:22;50.50;25.50
678;DHT22;321;48.814;9.132;2023-06-26T08:40:47;50.10;25.40
678;DHT22;321;48.814;9.132;2023-06-26T08:43:13;49.10;25.60
678;DHT22;321;48.814;9.132;2023-06-26T08:45:39;48.90;26.10
678;DHT22;321;48.814;9.132;2023-06-26T08:48:07;47.90;27.20
678;DHT22;321;48.814;9.132;2023-06-26T08:50:34;47.50;26.80
678;DHT22;321;48.814;9.132;2023-06-26T08:55:52;47.00;29.10
678;DHT22;321;48.814;9.132;2023-06-26T08:58:18;46.30;27.50
678;DHT22;321;48.814;9.132;2023-06-26T09:00:43;46.30;27.80
678;DHT22;321;48.814;9.132;2023-06-26T09:03:09;45.90;28.00
678;DHT22;321;48.814;9.132;2023-06-26T09:05:35;45.20;29.00
678;DHT22;321;48.814;9.132;2023-06-26T09:08:01;45.20;28.90
678;DHT22;321;48.814;9.132;2023-06-26T09:10:27;45.30;28.40
678;DHT22;321;48.814;9.132;2023-06-26T09:12:55;45.20;29.00
678;DHT22;321;48.814;9.132;2023-06-26T09:15:22;45.20;28.20
678;DHT22;321;48.814;9.132;2023-06-26T09:17:48;45.20;28.70
678;DHT22;321;48.814;9.132;2023-06-26T09:20:14;45.20;28.40
678;DHT22;321;48.814;9.132;2023-06-26T09:22:42;45.00;28.50
678;DHT22;321;48.814;9.132;2023-06-26T09:25:08;44.60;29.50
678;DHT22;321;48.814;9.132;2023-06-26T09:27:35;44.70;29.30
678;DHT22;321;48.814;9.132;2023-06-26T09:30:02;44.80;28.80
678;DHT22;321;48.814;9.132;2023-06-26T09:32:29;44.60;28.60
678;DHT22;321;48.814;9.132;2023-06-26T09:34:54;44.70;28.70
678;DHT22;321;48.814;9.132;2023-06-26T09:37:26;44.70;28.80
678;DHT22;321;48.814;9.132;2023-06-26T09:39:51;45.10;29.20
678;DHT22;321;48.814;9.132;2023-06-26T09:42:18;45.10;28.60
678;DHT22;321;48.814;9.132;2023-06-26T09:44:44;44.80;28.70
678;DHT22;321;48.814;9.132;2023-06-26T09:47:10;44.10;29.30
678;DHT22;321;48.814;9.132;2023-06-26T09:49:40;43.60;29.70
678;DHT22;321;48.814;9.132;2023-06-26T09:52:06;42.80;30.50
678;DHT22;321;48.814;9.132;2023-06-26T09:54:33;41.60;31.50
678;DHT22;321;48.814;9.132;2023-06-26T09:57:12;40.70;32.70
678;DHT22;321;48.814;9.132;2023-06-26T09:59:39;40.00;34.80
678;DHT22;321;48.814;9.132;2023-06-26T10:02:08;40.00;35.30
678;DHT22;321;48.814;9.132;2023-06-26T10:04:35;40.40;34.50
678;DHT22;321;48.814;9.132;2023-06-26T10:07:10;40.00;35.00
678;DHT22;321;48.814;9.132;2023-06-26T10:09:40;39.60;36.40
678;DHT22;321;48.814;9.132;2023-06-26T10:12:10;39.90;36.50
678;DHT22;321;48.814;9.132;2023-06-26T10:14:41;40.70;36.00
678;DHT22;321;48.814;9.132;2023-06-26T10:17:10;41.60;34.70
678;DHT22;321;48.814;9.132;2023-06-26T10:19:39;42.40;33.80
678;DHT22;321;48.814;9.132;2023-06-26T10:22:07;42.50;32.70
678;DHT22;321;48.814;9.132;2023-06-26T10:24:35;42.70;33.30
678;DHT22;321;48.814;9.132;2023-06-26T10:27:04;42.80;33.10
678;DHT22;321;48.814;9.132;2023-06-26T10:29:34;42.80;33.40
678;DHT22;321;48.814;9.132;2023-06-26T10:32:03;42.30;32.90
678;DHT22;321;48.814;9.132;2023-06-26T10:34:30;42.10;33.80
678;DHT22;321;48.814;9.132;2023-06-26T10:36:59;41.90;34.70
678;DHT22;321;48.814;9.132;2023-06-26T10:39:26;41.90;33.70
678;DHT22;321;48.814;9.132;2023-06-26T10:41:54;42.20;34.70
678;DHT22;321;48.814;9.132;2023-06-26T10:44:20;42.10;35.10
678;DHT22;321;48.814;9.132;2023-06-26T10:46:54;42.30;34.00
678;DHT22;321;48.814;9.132;2023-06-26T10:49:21;42.70;33.80
678;DHT22;321;48.814;9.132;2023-06-26T10:51:51;42.50;32.30
678;DHT22;321;48.814;9.132;2023-06-26T10:54:18;42.40;32.80
678;DHT22;321;48.814;9.132;2023-06-26T10:56:45;42.60;32.20
678;DHT22;321;48.814;9.132;2023-06-26T10:59:22;42.20;31.80
678;DHT22;321;48.814;9.132;2023-06-26T11:04:48;42.30;31.80
678;DHT22;321;48.814;9.132;2023-06-26T11:12:43;42.20;33.00
678;DHT22;321;48.814;9.132;2023-06-26T11:15:15;42.10;32.90
678;DHT22;321;48.814;9.132;2023-06-26T11:17:44;42.30;34.30
678;DHT22;321;48.814;9.132;2023-06-26T11:20:15;41.60;34.10
678;DHT22;321;48.814;9.132;2023-06-26T11:22:43;41.30;34.20
678;DHT22;321;48.814;9.132;2023-06-26T11:25:10;41.50;34.50
678;DHT22;321;48.814;9.132;2023-06-26T11:27:42;41.30;35.40
678;DHT22;321;48.814;9.132;2023-06-26T11:30:23;41.00;35.30
678;DHT22;321;48.814;9.132;2023-06-26T11:32:49;40.70;36.10
678;DHT22;321;48.814;9.132;2023-06-26T11:35:25;40.50;36.00
678;DHT22;321;48.814;9.132;2023-06-26T11:37:59;40.60;36.10
678;DHT22;321;48.814;9.132;2023-06-26T11:40:29;40.60;35.60
678;DHT22;321;48.814;9.132;2023-06-26T11:42:58;40.10;37.10
678;DHT22;321;48.814;9.132;2023-06-26T11:45:25;39.90;38.30
678;DHT22;321;48.814;9.132;2023-06-26T11:47:51;40.40;37.30
678;DHT22;321;48.814;9.132;2023-06-26T11:50:17;41.00;37.00
678;DHT22;321;48.814;9.132;2023-06-26T11:52:43;41.40;36.50
678;DHT22;321;48.814;9.132;2023-06-26T11:55:09;41.20;36.30
678;DHT22;321;48.814;9.132;2023-06-26T11:57:36;41.10;35.90
678;DHT22;321;48.814;9.132;2023-06-26T12:00:15;40.30;37.00
678;DHT22;321;48.814;9.132;2023-06-26T12:02:41;39.20;39.00
678;DHT22;321;48.814;9.132;2023-06-26T12:05:07;38.50;40.20
678;DHT22;321;48.814;9.132;2023-06-26T12:07:33;37.70;42.50
678;DHT22;321;48.814;9.132;2023-06-26T12:10:00;37.10;44.20
678;DHT22;321;48.814;9.132;2023-06-26T12:12:26;36.40;45.40
678;DHT22;321;48.814;9.132;2023-06-26T12:14:52;35.90;45.60
678;DHT22;321;48.814;9.132;2023-06-26T12:17:22;35.60;46.70
678;DHT22;321;48.814;9.132;2023-06-26T12:19:48;35.20;47.60
678;DHT22;321;48.814;9.132;2023-06-26T12:22:15;35.00;47.90
678;DHT22;321;48.814;9.132;2023-06-26T12:24:42;34.90;48.20
678;DHT22;321;48.814;9.132;2023-06-26T12:27:13;34.70;48.20
678;DHT22;321;48.814;9.132;2023-06-26T12:29:45;34.40;48.80
678;DHT22;321;48.814;9.132;2023-06-26T12:32:12;34.10;48.80
678;DHT22;321;48.814;9.132;2023-06-26T12:34:40;33.80;49.30
678;DHT22;321;48.814;9.132;2023-06-26T12:37:07;33.50;50.60
678;DHT22;321;48.814;9.132;2023-06-26T12:39:56;33.50;50.10
678;DHT22;321;48.814;9.132;2023-06-26T12:42:24;33.20;51.00
678;DHT22;321;48.814;9.132;2023-06-26T12:44:50;32.90;51.10
678;DHT22;321;48.814;9.132;2023-06-26T12:47:17;32.70;51.80
678;DHT22;321;48.814;9.132;2023-06-26T12:49:50;32.80;51.60
678;DHT22;321;48.814;9.132;2023-06-26T12:52:16;32.60;51.70
678;DHT22;321;48.814;9.132;2023-06-26T12:54:44;32.50;52.00
678;DHT22;321;48.814;9.132;2023-06-26T12:57:10;32.30;51.90
678;DHT22;321;48.814;9.132;2023-06-26T12:59:38;32.30;52.60
678;DHT22;321;48.814;9.132;2023-06-26T13:02:04;32.20;53.00
678;DHT22;321;48.814;9.132;2023-06-26T13:04:30;32.30;53.40
678;DHT22;321;48.814;9.132;2023-06-26T13:06:56;32.20;52.90
678;DHT22;321;48.814;9.132;2023-06-26T13:09:23;32.00;52.80
678;DHT22;321;48.814;9.132;2023-06-26T13:11:49;31.90;52.70
678;DHT22;321;48.814;9.132;2023-06-26T13:14:15;31.80;53.10
678;DHT22;321;48.814;9.132;2023-06-26T13:16:40;31.70;53.20
678;DHT22;321;48.814;9.132;2023-06-26T13:19:06;31.50;53.20
678;DHT22;321;48.814;9.132;2023-06-26T13:21:33;31.30;53.70
678;DHT22;321;48.814;9.132;2023-06-26T13:23:58;31.20;53.70
678;DHT22;321;48.814;9.132;2023-06-26T13:26:25;31.20;53.30
678;DHT22;321;48.814;9.132;2023-06-26T13:28:52;31.30;53.10
678;DHT22;321;48.814;9.132;2023-06-26T13:31:17;31.30;52.40
678;DHT22;321;48.814;9.132;2023-06-26T13:33:44;31.30;52.70
678;DHT22;321;48.814;9.132;2023-06-26T13:36:10;31.20;52.00
678;DHT22;321;48.814;9.132;2023-06-26T13:38:36;31.30;52.60
678;DHT22;321;48.814;9.132;2023-06-26T13:41:01;31.40;51.50
678;DHT22;321;48.814;9.132;2023-06-26T13:43:28;31.30;51.00
678;DHT22;321;48.814;9.132;2023-06-26T13:45:54;31.20;50.90
678;DHT22;321;48.814;9.132;2023-06-26T13:48:20;31.20;50.00
678;DHT22;321;48.814;9.132;2023-06-26T13:50:47;31.20;49.40
678;DHT22;321;48.814;9.132;2023-06-26T13:53:13;31.10;50.10
678;DHT22;321;48.814;9.132;2023-06-26T13:55:42;31.10;49.00
678;DHT22;321;48.814;9.132;2023-06-26T13:58:09;31.00;48.70
678;DHT22;321;48.814;9.132;2023-06-26T14:00:35;30.90;48.70
678;DHT22;321;48.814;9.132;2023-06-26T14:03:05;30.80;48.70
678;DHT22;321;48.814;9.132;2023-06-26T14:05:32;30.70;49.40
678;DHT22;321;48.814;9.132;2023-06-26T14:07:58;30.70;49.00
678;DHT22;321;48.814;9.132;2023-06-26T14:10:24;30.60;48.60
678;DHT22;321;48.814;9.132;2023-06-26T14:12:49;30.70;49.30
678;DHT22;321;48.814;9.132;2023-06-26T14:15:15;30.60;50.00
678;DHT22;321;48.814;9.132;2023-06-26T14:17:41;30.50;49.30
678;DHT22;321;48.814;9.132;2023-06-26T14:20:07;30.50;49.70
678;DHT22;321;48.814;9.132;2023-06-26T14:22:42;30.50;49.30
678;DHT22;321;48.814;9.132;2023-06-26T14:25:08;30.40;50.20
678;DHT22;321;48.814;9.132;2023-06-26T14:27:34;30.50;49.70
678;DHT22;321;48.814;9.132;2023-06-26T14:30:00;30.60;49.70
678;DHT22;321;48.814;9.132;2023-06-26T14:32:26;30.50;48.80
678;DHT22;321;48.814;9.132;2023-06-26T14:34:51;30.50;49.30
678;DHT22;321;48.814;9.132;2023-06-26T14:37:17;30.40;49.50
678;DHT22;321;48.814;9.132;2023-06-26T14:39:44;30.30;50.10
678;DHT22;321;48.814;9.132;2023-06-26T14:42:10;30.30;49.60
678;DHT22;321;48.814;9.132;2023-06-26T14:44:36;30.30;50.70
678;DHT22;321;48.814;9.132;2023-06-26T14:47:02;30.20;50.50
678;DHT22;321;48.814;9.132;2023-06-26T14:49:27;30.20;51.20
678;DHT22;321;48.814;9.132;2023-06-26T14:51:53;30.10;51.40
678;DHT22;321;48.814;9.132;2023-06-26T14:54:18;30.10;51.60
678;DHT22;321;48.814;9.132;2023-06-26T14:56:44;30.00;51.80
678;DHT22;321;48.814;9.132;2023-06-26T14:59:11;29.90;52.00
678;DHT22;321;48.814;9.132;2023-06-26T15:01:38;29.80;52.20
678;DHT22;321;48.814;9.132;2023-06-26T15:04:04;29.70;53.00
678;DHT22;321;48.814;9.132;2023-06-26T15:06:29;29.60;52.50
678;DHT22;321;48.814;9.132;2023-06-26T15:08:55;29.50;52.50
678;DHT22;321;48.814;9.132;2023-06-26T15:11:20;29.40;53.00
678;DHT22;321;48.814;9.132;2023-06-26T15:13:46;29.30;53.50
678;DHT22;321;48.814;9.132;2023-06-26T15:16:11;29.30;52.20
678;DHT22;321;48.814;9.132;2023-06-26T15:18:37;29.20;52.70
678;DHT22;321;48.814;9.132;2023-06-26T15:21:02;29.20;52.60
678;DHT22;321;48.814;9.132;2023-06-26T15:23:29;29.20;52.60
678;DHT22;321;48.814;9.132;2023-06-26T15:25:55;29.20;52.70
678;DHT22;321;48.814;9.132;2023-06-26T15:28:20;29.10;52.60
678;DHT22;321;48.814;9.132;2023-06-26T15:30:47;29.10;52.90
678;DHT22;321;48.814;9.132;2023-06-26T15:33:12;29.00;53.30
678;DHT22;321;48.814;9.132;2023-06-26T15:35:38;28.90;52.80
678;DHT22;321;48.814;9.132;2023-06-26T15:38:04;28.80;53.10
678;DHT22;321;48.814;9.132;2023-06-26T15:40:30;28.80;52.20
678;DHT22;321;48.814;9.132;2023-06-26T15:42:55;28.80;52.40
678;DHT22;321;48.814;9.132;2023-06-26T15:45:22;29.00;52.50
678;DHT22;321;48.814;9.132;2023-06-26T15:47:48;29.00;52.50
678;DHT22;321;48.814;9.132;2023-06-26T15:50:14;29.10;52.30
678;DHT22;321;48.814;9.132;2023-06-26T15:52:40;29.00;52.30
678;DHT22;321;48.814;9.132;2023-06-26T15:55:06;28.90;52.70
678;DHT22;321;48.814;9.132;2023-06-26T15:57:32;28.70;52.90
678;DHT22;321;48.814;9.132;2023-06-26T15:59:58;28.70;53.60
678;DHT22;321;48.814;9.132;2023-06-26T16:02:24;28.60;53.00
678;DHT22;321;48.814;9.132;2023-06-26T16:04:50;28.60;53.30
678;DHT22;321;48.814;9.132;2023-06-26T16:07:16;28.60;53.50
678;DHT22;321;48.814;9.132;2023-06-26T16:09:41;28.60;53.70
678;DHT22;321;48.814;9.132;2023-06-26T16:12:07;28.60;53.60
678;DHT22;321;48.814;9.132;2023-06-26T16:14:32;28.80;53.20
678;DHT22;321;48.814;9.132;2023-06-26T16:16:58;28.70;53.30
678;DHT22;321;48.814;9.132;2023-06-26T16:19:24;28.60;52.50
678;DHT22;321;48.814;9.132;2023-06-26T16:21:50;28.60;53.10
678;DHT22;321;48.814;9.132;2023-06-26T16:24:16;28.60;53.50
678;DHT22;321;48.814;9.132;2023-06-26T16:26:41;28.60;53.10
678;DHT22;321;48.814;9.132;2023-06-26T16:29:07;28.60;52.60
678;DHT22;321;48.814;9.132;2023-06-26T16:31:33;28.50;52.00
678;DHT22;321;48.814;9.132;2023-06-26T16:33:59;28.50;51.70
678;DHT22;321;48.814;9.132;2023-06-26T16:36:24;28.40;51.30
678;DHT22;321;48.814;9.132;2023-06-26T16:38:50;28.30;52.40
678;DHT22;321;48.814;9.132;2023-06-26T16:41:16;28.30;51.70
678;DHT22;321;48.814;9.132;2023-06-26T16:43:41;28.10;50.70
678;DHT22;321;48.814;9.132;2023-06-26T16:46:07;28.00;50.60